createdAt,value
2022-10-09T00:00:50.107Z,56.40
2022-10-09T00:03:19.610Z,56.40
2022-10-09T00:05:47.559Z,57.60
2022-10-09T00:08:15.424Z,59.70
2022-10-09T00:10:43.749Z,58.60
2022-10-09T00:13:12.518Z,55.70
2022-10-09T00:15:40.722Z,56.40
2022-10-09T00:18:08.745Z,55.80
2022-10-09T00:20:39.521Z,56.20
2022-10-09T00:23:08.178Z,56.20
2022-10-09T00:25:36.791Z,56.50
2022-10-09T00:28:05.574Z,57.00
2022-10-09T00:30:33.597Z,56.10
2022-10-09T00:33:01.528Z,54.60
2022-10-09T00:35:29.378Z,55.90
2022-10-09T00:37:58.654Z,55.90
2022-10-09T00:40:26.559Z,55.80
2022-10-09T00:42:57.282Z,56.50
2022-10-09T00:45:25.367Z,56.30
2022-10-09T00:47:56.353Z,57.40
2022-10-09T00:50:28.075Z,56.70
2022-10-09T00:53:01.213Z,57.30
2022-10-09T00:55:30.680Z,56.00
2022-10-09T00:58:00.877Z,56.20
2022-10-09T01:00:28.899Z,57.20
2022-10-09T01:02:56.805Z,57.10
2022-10-09T01:05:31.609Z,57.50
2022-10-09T01:08:09.719Z,57.30
2022-10-09T01:10:43.984Z,56.50
2022-10-09T01:13:19.888Z,57.30
2022-10-09T01:15:54.019Z,57.20
2022-10-09T01:18:30.920Z,58.20
2022-10-09T01:21:04.871Z,58.00
2022-10-09T01:23:55.420Z,58.20
2022-10-09T01:26:47.057Z,57.80
2022-10-09T01:29:18.683Z,57.60
2022-10-09T01:31:49.682Z,56.50
2022-10-09T01:34:20.199Z,57.20
2022-10-09T01:36:48.823Z,56.20
2022-10-09T01:39:19.491Z,56.40
2022-10-09T01:41:49.300Z,57.20
2022-10-09T01:44:19.827Z,56.80
2022-10-09T01:46:48.574Z,56.80
2022-10-09T01:49:27.201Z,57.30
2022-10-09T01:52:04.106Z,57.00
2022-10-09T01:54:37.676Z,56.60
2022-10-09T01:57:09.304Z,57.80
2022-10-09T01:59:43.317Z,57.60
2022-10-09T02:02:12.479Z,58.50
2022-10-09T02:04:42.844Z,57.70
2022-10-09T02:07:11.577Z,57.30
2022-10-09T02:09:40.636Z,56.60
2022-10-09T02:12:12.192Z,57.40
2022-10-09T02:14:41.583Z,56.90
2022-10-09T02:17:13.805Z,55.60
2022-10-09T02:19:48.075Z,56.10
2022-10-09T02:22:19.486Z,56.90
2022-10-09T02:24:48.389Z,56.60
2022-10-09T02:27:17.552Z,56.10
2022-10-09T02:29:47.758Z,58.00
2022-10-09T02:32:15.789Z,56.10
2022-10-09T02:34:44.418Z,56.20
2022-10-09T02:37:12.263Z,56.80
2022-10-09T02:39:40.941Z,57.80
2022-10-09T02:42:09.052Z,57.00
2022-10-09T02:44:37.027Z,56.60
2022-10-09T02:47:06.325Z,56.90
2022-10-09T02:49:34.202Z,57.40
2022-10-09T02:52:02.096Z,57.00
2022-10-09T02:54:29.952Z,56.60
2022-10-09T02:56:57.883Z,56.50
2022-10-09T02:59:25.831Z,56.50
2022-10-09T03:01:53.989Z,56.50
2022-10-09T03:04:23.235Z,58.20
2022-10-09T03:06:51.123Z,58.70
2022-10-09T03:09:18.970Z,58.20
2022-10-09T03:11:46.874Z,57.40
2022-10-09T03:14:14.743Z,57.90
2022-10-09T03:16:42.686Z,57.40
2022-10-09T03:19:10.563Z,57.60
2022-10-09T03:21:39.804Z,58.40
2022-10-09T03:24:08.063Z,59.20
2022-10-09T03:26:36.001Z,56.60
2022-10-09T03:29:03.945Z,56.70
2022-10-09T03:31:52.221Z,57.20
2022-10-09T03:34:19.730Z,57.00
2022-10-09T03:36:48.936Z,56.10
2022-10-09T03:39:16.801Z,57.70
2022-10-09T03:41:44.775Z,57.60
2022-10-09T03:44:12.667Z,55.80
2022-10-09T03:46:40.663Z,56.60
2022-10-09T03:49:09.017Z,55.80
2022-10-09T03:51:36.897Z,58.20
2022-10-09T03:54:06.724Z,58.20
2022-10-09T03:56:34.560Z,57.40
2022-10-09T03:59:05.462Z,57.60
2022-10-09T04:01:33.401Z,56.50
2022-10-09T04:04:01.266Z,57.30
2022-10-09T04:06:29.361Z,58.90
2022-10-09T04:08:57.704Z,58.50
2022-10-09T04:11:26.895Z,55.70
2022-10-09T04:13:54.754Z,57.40
2022-10-09T04:16:22.648Z,57.80
2022-10-09T04:18:50.637Z,57.90
2022-10-09T04:21:18.614Z,58.00
2022-10-09T04:23:46.502Z,59.20
2022-10-09T04:26:14.987Z,58.80
2022-10-09T04:28:44.965Z,55.40
2022-10-09T04:31:12.978Z,57.90
2022-10-09T04:33:40.862Z,58.30
2022-10-09T04:36:08.943Z,58.40
2022-10-09T04:38:36.833Z,59.00
2022-10-09T04:41:07.105Z,59.50
2022-10-09T04:43:35.586Z,59.20
2022-10-09T04:46:07.255Z,57.10
2022-10-09T04:48:39.408Z,57.80
2022-10-09T04:51:08.356Z,59.00
2022-10-09T04:53:37.614Z,58.70
2022-10-09T04:56:07.489Z,59.10
2022-10-09T04:58:36.440Z,59.40
2022-10-09T05:01:09.341Z,59.40
2022-10-09T05:03:37.801Z,60.00
2022-10-09T05:06:08.626Z,60.20
2022-10-09T05:08:37.256Z,60.10
2022-10-09T05:11:07.873Z,60.20
2022-10-09T05:13:38.151Z,60.50
2022-10-09T05:16:09.977Z,56.60
2022-10-09T05:18:42.258Z,56.40
2022-10-09T05:21:10.452Z,57.70
2022-10-09T05:23:38.364Z,59.20
2022-10-09T05:26:08.071Z,56.30
2022-10-09T05:28:36.975Z,57.90
2022-10-09T05:31:07.091Z,58.00
2022-10-09T05:33:35.239Z,59.00
2022-10-09T05:36:06.070Z,57.00
2022-10-09T05:38:34.991Z,55.80
2022-10-09T05:41:05.504Z,56.00
2022-10-09T05:43:35.517Z,56.00
2022-10-09T05:46:10.568Z,58.00
2022-10-09T05:48:39.623Z,59.30
2022-10-09T05:51:14.340Z,59.10
2022-10-09T05:53:43.912Z,59.30
2022-10-09T05:56:14.013Z,60.00
2022-10-09T05:58:42.044Z,58.40
2022-10-09T06:01:11.570Z,57.20
2022-10-09T06:03:39.771Z,58.10
2022-10-09T06:06:09.302Z,58.20
2022-10-09T06:08:38.751Z,59.70
2022-10-09T06:11:11.319Z,59.50
2022-10-09T06:13:39.185Z,55.20
2022-10-09T06:16:07.245Z,53.50
2022-10-09T06:18:36.503Z,53.90
2022-10-09T06:21:05.121Z,53.00
2022-10-09T06:23:33.132Z,51.60
2022-10-09T06:26:04.763Z,51.40
2022-10-09T06:28:33.947Z,48.90
2022-10-09T06:31:03.902Z,51.20
2022-10-09T06:33:32.815Z,50.20
2022-10-09T06:36:09.832Z,51.70
2022-10-09T06:38:38.970Z,51.80
2022-10-09T06:41:09.428Z,52.10
2022-10-09T06:43:37.990Z,51.80
2022-10-09T06:46:09.602Z,51.60
2022-10-09T06:48:39.051Z,50.70
2022-10-09T06:51:11.277Z,50.80
2022-10-09T06:53:40.457Z,49.60
2022-10-09T06:56:10.412Z,48.90
2022-10-09T06:58:38.986Z,47.70
2022-10-09T07:01:08.522Z,47.50
2022-10-09T07:03:36.835Z,47.80
2022-10-09T07:06:10.786Z,48.40
2022-10-09T07:08:39.321Z,47.90
2022-10-09T07:11:12.468Z,48.30
2022-10-09T07:13:40.693Z,46.60
2022-10-09T07:16:09.185Z,47.40
2022-10-09T07:18:37.143Z,47.70
2022-10-09T07:21:07.047Z,46.60
2022-10-09T07:23:37.224Z,47.60
2022-10-09T07:26:12.181Z,47.20
2022-10-09T07:28:41.327Z,47.50
2022-10-09T07:31:10.135Z,47.00
2022-10-09T07:33:38.242Z,46.90
2022-10-09T07:36:07.560Z,46.90
2022-10-09T07:38:37.059Z,47.10
2022-10-09T07:41:06.813Z,46.60
2022-10-09T07:43:36.367Z,46.80
2022-10-09T07:46:06.587Z,46.20
2022-10-09T07:48:35.963Z,46.80
2022-10-09T07:51:10.168Z,47.20
2022-10-09T07:53:39.635Z,46.40
2022-10-09T07:56:08.040Z,44.80
2022-10-09T07:58:36.233Z,44.00
2022-10-09T08:01:08.258Z,42.80
2022-10-09T08:03:37.003Z,45.10
2022-10-09T08:06:05.249Z,42.70
2022-10-09T08:08:33.338Z,42.90
2022-10-09T08:11:09.509Z,45.20
2022-10-09T08:13:37.479Z,44.30
2022-10-09T08:16:07.546Z,43.50
2022-10-09T08:18:36.029Z,45.40
2022-10-09T08:21:06.250Z,43.60
2022-10-09T08:23:34.214Z,43.00
2022-10-09T08:26:03.817Z,45.30
2022-10-09T08:28:31.947Z,42.60
2022-10-09T08:30:59.957Z,41.70
2022-10-09T08:33:27.904Z,43.80
2022-10-09T08:35:55.801Z,42.10
2022-10-09T08:38:45.986Z,43.90
2022-10-09T08:41:17.433Z,41.80
2022-10-09T08:43:48.834Z,40.30
2022-10-09T08:46:22.674Z,41.60
2022-10-09T08:48:52.493Z,41.20
2022-10-09T08:51:24.938Z,40.90
2022-10-09T08:53:58.592Z,39.50
2022-10-09T08:56:28.969Z,42.90
2022-10-09T08:58:57.071Z,42.20
2022-10-09T09:01:34.965Z,41.90
2022-10-09T09:04:37.419Z,42.40
2022-10-09T09:07:13.166Z,42.30
2022-10-09T09:09:53.224Z,41.40
2022-10-09T09:12:28.381Z,39.90
2022-10-09T09:15:10.783Z,40.30
2022-10-09T09:17:46.890Z,40.60
2022-10-09T09:20:21.111Z,38.80
2022-10-09T09:22:51.081Z,41.10
2022-10-09T09:25:23.157Z,39.60
2022-10-09T09:27:53.734Z,40.90
2022-10-09T09:30:32.398Z,38.10
2022-10-09T09:33:10.526Z,38.20
2022-10-09T09:35:47.057Z,38.20
2022-10-09T09:38:15.492Z,39.70
2022-10-09T09:40:47.218Z,37.60
2022-10-09T09:43:20.138Z,39.80
2022-10-09T09:45:48.867Z,37.60
2022-10-09T09:48:19.866Z,38.50
2022-10-09T09:51:05.139Z,39.30
2022-10-09T09:53:43.282Z,37.10
2022-10-09T09:56:11.775Z,37.00
2022-10-09T09:58:46.195Z,35.70
2022-10-09T10:01:23.225Z,38.10
2022-10-09T10:03:52.532Z,37.60
2022-10-09T10:06:25.171Z,38.40
2022-10-09T10:09:01.064Z,35.40
2022-10-09T10:11:30.465Z,36.60
2022-10-09T10:14:07.364Z,36.00
2022-10-09T10:16:38.258Z,36.70
2022-10-09T10:19:07.035Z,38.60
2022-10-09T10:21:42.088Z,35.40
2022-10-09T10:24:16.243Z,36.40
2022-10-09T10:26:48.962Z,37.10
2022-10-09T10:29:21.659Z,35.30
2022-10-09T10:31:55.637Z,34.60
2022-10-09T10:34:27.845Z,35.30
2022-10-09T10:37:03.420Z,32.80
2022-10-09T10:39:38.486Z,31.30
2022-10-09T10:42:16.148Z,33.80
2022-10-09T10:44:57.984Z,32.10
2022-10-09T10:47:31.071Z,34.00
2022-10-09T10:49:59.136Z,31.30
2022-10-09T10:52:39.405Z,30.40
2022-10-09T10:55:22.710Z,32.30
2022-10-09T10:57:59.626Z,32.40
2022-10-09T11:00:29.786Z,31.70
2022-10-09T11:03:10.472Z,31.70
2022-10-09T11:05:47.788Z,31.20
2022-10-09T11:08:39.372Z,30.60
2022-10-09T11:11:14.186Z,33.10
2022-10-09T11:13:51.859Z,31.60
2022-10-09T11:16:35.996Z,33.70
2022-10-09T11:19:19.613Z,31.10
2022-10-09T11:22:00.202Z,32.90
2022-10-09T11:24:56.657Z,32.40
2022-10-09T11:27:27.986Z,31.30
2022-10-09T11:30:00.062Z,29.90
2022-10-09T11:32:33.981Z,29.10
2022-10-09T11:35:07.624Z,28.20
2022-10-09T11:37:39.288Z,28.40
2022-10-09T11:40:15.642Z,29.90
2022-10-09T11:42:44.023Z,28.40
2022-10-09T11:45:22.329Z,28.20
2022-10-09T11:48:00.284Z,29.00
2022-10-09T11:50:48.587Z,29.40
2022-10-09T11:53:18.460Z,28.20
2022-10-09T11:55:48.224Z,29.40
2022-10-09T11:58:24.818Z,28.40
2022-10-09T12:00:54.912Z,28.10
2022-10-09T12:03:33.855Z,29.10
2022-10-09T12:06:08.212Z,30.80
2022-10-09T12:08:36.885Z,29.30
2022-10-09T12:11:12.832Z,28.50
2022-10-09T12:13:50.462Z,29.50
2022-10-09T12:16:38.699Z,29.20
2022-10-09T12:19:17.076Z,28.10
2022-10-09T12:21:53.105Z,29.60
2022-10-09T12:24:23.698Z,28.80
2022-10-09T12:26:54.629Z,29.70
2022-10-09T12:29:28.399Z,28.30
2022-10-09T12:32:00.095Z,27.60
2022-10-09T12:34:33.290Z,29.10
2022-10-09T12:37:15.324Z,29.00
2022-10-09T12:39:43.921Z,26.20
2022-10-09T12:42:18.903Z,26.90
2022-10-09T12:44:48.238Z,28.60
2022-10-09T12:47:20.030Z,27.50
2022-10-09T12:49:57.931Z,27.00
2022-10-09T12:52:26.002Z,27.20
2022-10-09T12:54:54.457Z,28.50
2022-10-09T12:57:26.819Z,26.20
2022-10-09T12:59:56.179Z,27.40
2022-10-09T13:02:24.375Z,27.90
2022-10-09T13:04:59.733Z,26.70
2022-10-09T13:07:29.919Z,27.30
2022-10-09T13:10:05.095Z,26.30
2022-10-09T13:12:33.826Z,27.20
2022-10-09T13:15:03.474Z,28.50
2022-10-09T13:17:33.786Z,26.60
2022-10-09T13:20:23.519Z,26.90
2022-10-09T13:22:55.833Z,27.70
2022-10-09T13:25:23.990Z,26.60
2022-10-09T13:27:52.458Z,27.70
2022-10-09T13:30:20.581Z,27.20
2022-10-09T13:32:48.517Z,26.80
2022-10-09T13:35:17.978Z,27.10
2022-10-09T13:37:46.139Z,27.30
2022-10-09T13:40:18.063Z,27.30
2022-10-09T13:42:51.588Z,27.30
2022-10-09T13:45:19.671Z,27.40
2022-10-09T13:47:47.868Z,27.40
2022-10-09T13:50:18.416Z,28.20
2022-10-09T13:52:46.373Z,28.40
2022-10-09T13:55:14.720Z,28.20
2022-10-09T13:57:42.657Z,29.30
2022-10-09T14:00:11.856Z,29.40
2022-10-09T14:02:39.832Z,28.70
2022-10-09T14:05:08.524Z,28.80
2022-10-09T14:07:38.057Z,29.20
2022-10-09T14:10:06.926Z,29.10
2022-10-09T14:12:34.850Z,28.80
2022-10-09T14:15:02.874Z,28.90
2022-10-09T14:17:30.750Z,28.90
2022-10-09T14:19:58.659Z,28.90
2022-10-09T14:22:26.594Z,29.10
2022-10-09T14:24:55.835Z,29.00
2022-10-09T14:27:23.748Z,29.40
2022-10-09T14:29:54.133Z,29.00
2022-10-09T14:32:24.609Z,28.90
2022-10-09T14:34:53.074Z,28.90
2022-10-09T14:37:40.031Z,30.00
2022-10-09T14:40:11.403Z,29.80
2022-10-09T14:42:40.029Z,30.30
2022-10-09T14:45:09.405Z,29.40
2022-10-09T14:47:37.296Z,29.10
2022-10-09T14:50:05.515Z,28.70
2022-10-09T14:52:33.489Z,29.70
2022-10-09T14:55:01.445Z,30.00
2022-10-09T14:57:35.209Z,29.40
2022-10-09T15:00:04.594Z,29.90
2022-10-09T15:02:32.506Z,29.80
2022-10-09T15:05:00.472Z,29.50
2022-10-09T15:07:28.418Z,29.70
2022-10-09T15:09:56.936Z,29.90
2022-10-09T15:12:25.119Z,29.50
2022-10-09T15:14:54.408Z,29.90
2022-10-09T15:17:22.268Z,30.50
2022-10-09T15:19:50.180Z,31.00
2022-10-09T15:22:18.062Z,30.20
2022-10-09T15:24:47.611Z,30.20
2022-10-09T15:27:15.514Z,30.40
2022-10-09T15:29:43.431Z,29.90
2022-10-09T15:32:12.716Z,29.70
2022-10-09T15:34:41.285Z,30.70
2022-10-09T15:37:09.320Z,29.40
2022-10-09T15:39:37.350Z,29.40
2022-10-09T15:42:05.667Z,29.50
2022-10-09T15:44:33.662Z,30.00
2022-10-09T15:47:01.587Z,30.00
2022-10-09T15:49:30.884Z,31.00
2022-10-09T15:51:58.795Z,30.70
2022-10-09T15:54:27.750Z,31.70
2022-10-09T15:56:55.682Z,33.50
2022-10-09T15:59:23.563Z,31.90
2022-10-09T16:01:51.527Z,32.50
2022-10-09T16:04:19.465Z,33.20
2022-10-09T16:06:48.796Z,35.80
2022-10-09T16:09:16.804Z,38.40
2022-10-09T16:11:44.763Z,39.60
2022-10-09T16:14:13.156Z,41.40
2022-10-09T16:16:41.123Z,42.10
2022-10-09T16:19:09.048Z,43.40
2022-10-09T16:21:37.027Z,43.90
2022-10-09T16:24:06.716Z,44.30
2022-10-09T16:26:34.648Z,44.30
2022-10-09T16:29:02.679Z,44.80
2022-10-09T16:31:34.678Z,44.60
2022-10-09T16:34:03.816Z,45.20
2022-10-09T16:36:32.128Z,45.70
2022-10-09T16:39:00.087Z,46.10
2022-10-09T16:41:29.581Z,46.30
2022-10-09T16:44:00.150Z,46.40
2022-10-09T16:46:31.551Z,45.40
2022-10-09T16:49:01.163Z,46.40
2022-10-09T16:51:31.502Z,47.20
2022-10-09T16:54:01.391Z,47.90
2022-10-09T16:56:33.329Z,48.80
2022-10-09T16:59:03.168Z,49.20
2022-10-09T17:01:32.184Z,49.10
2022-10-09T17:04:00.980Z,49.50
2022-10-09T17:06:28.957Z,49.50
2022-10-09T17:08:59.160Z,49.20
2022-10-09T17:11:32.381Z,49.60
2022-10-09T17:14:01.790Z,49.30
2022-10-09T17:16:32.477Z,49.50
2022-10-09T17:19:01.054Z,49.60
2022-10-09T17:21:34.136Z,49.50
2022-10-09T17:24:04.398Z,49.80
2022-10-09T17:26:32.314Z,50.00
2022-10-09T17:29:02.780Z,50.20
2022-10-09T17:31:31.518Z,50.40
2022-10-09T17:34:02.023Z,50.10
2022-10-09T17:36:32.313Z,50.40
2022-10-09T17:39:00.600Z,50.60
2022-10-09T17:41:29.310Z,50.40
2022-10-09T17:43:58.167Z,50.80
2022-10-09T17:46:29.409Z,50.80
2022-10-09T17:48:58.441Z,50.40
2022-10-09T17:51:27.940Z,50.00
2022-10-09T17:56:26.669Z,50.70
2022-10-09T17:58:55.989Z,50.60
2022-10-09T18:01:24.674Z,50.50
2022-10-09T18:03:54.029Z,50.60
2022-10-09T18:06:23.862Z,50.50
2022-10-09T18:08:53.998Z,50.70
2022-10-09T18:11:23.000Z,50.70
2022-10-09T18:13:50.932Z,50.90
2022-10-09T18:16:22.469Z,51.70
2022-10-09T18:18:51.051Z,52.20
2022-10-09T18:21:20.348Z,52.00
2022-10-09T18:23:49.370Z,51.80
2022-10-09T18:26:19.436Z,52.20
2022-10-09T18:28:48.673Z,52.20
2022-10-09T18:31:19.096Z,52.20
2022-10-09T18:33:47.596Z,51.70
2022-10-09T18:36:19.590Z,52.00
2022-10-09T18:38:51.033Z,51.70
2022-10-09T18:41:19.869Z,52.20
2022-10-09T18:43:48.453Z,52.40
2022-10-09T18:46:17.186Z,52.50
2022-10-09T18:48:46.267Z,52.50
2022-10-09T18:51:17.200Z,52.50
2022-10-09T18:53:48.525Z,52.90
2022-10-09T18:56:20.648Z,52.80
2022-10-09T18:58:50.242Z,52.70
2022-10-09T19:01:18.168Z,52.70
2022-10-09T19:03:49.253Z,52.90
2022-10-09T19:06:19.006Z,53.40
2022-10-09T19:08:47.277Z,53.20
2022-10-09T19:11:15.249Z,53.60
2022-10-09T19:13:45.444Z,53.30
2022-10-09T19:16:13.439Z,53.60
2022-10-09T19:18:41.399Z,53.60
2022-10-09T19:21:13.637Z,53.60
2022-10-09T19:23:42.063Z,53.80
2022-10-09T19:26:10.013Z,54.00
2022-10-09T19:28:38.698Z,53.10
2022-10-09T19:31:08.570Z,53.40
2022-10-09T19:33:37.784Z,54.10
2022-10-09T19:36:07.059Z,53.80
2022-10-09T19:38:35.924Z,53.80
2022-10-09T19:41:05.412Z,54.20
2022-10-09T19:43:33.593Z,54.40
2022-10-09T19:46:03.175Z,54.80
2022-10-09T19:48:33.046Z,54.70
2022-10-09T19:51:01.252Z,54.80
2022-10-09T19:53:29.262Z,54.70
2022-10-09T19:55:57.552Z,53.40
2022-10-09T19:58:25.466Z,53.70
2022-10-09T20:00:53.505Z,53.30
2022-10-09T20:03:21.479Z,53.80
2022-10-09T20:05:50.764Z,54.10
2022-10-09T20:08:18.756Z,54.60
2022-10-09T20:10:46.695Z,54.70
2022-10-09T20:13:15.072Z,54.00
2022-10-09T20:15:43.686Z,53.40
2022-10-09T20:18:11.640Z,54.30
2022-10-09T20:20:40.413Z,53.90
2022-10-09T20:23:09.678Z,53.70
2022-10-09T20:25:37.582Z,54.60
2022-10-09T20:28:05.521Z,55.80
2022-10-09T20:30:33.413Z,56.20
2022-10-09T20:33:01.989Z,55.50
2022-10-09T20:35:30.231Z,54.60
2022-10-09T20:38:00.106Z,55.00
2022-10-09T20:40:29.382Z,55.70
2022-10-09T20:42:57.350Z,55.70
2022-10-09T20:45:25.266Z,55.20
2022-10-09T20:47:53.352Z,56.10
2022-10-09T20:50:21.365Z,56.10
2022-10-09T20:52:49.593Z,55.70
2022-10-09T20:55:17.755Z,55.10
2022-10-09T20:57:49.779Z,54.40
2022-10-09T21:00:19.969Z,55.20
2022-10-09T21:02:48.448Z,56.60
2022-10-09T21:05:16.689Z,55.40
2022-10-09T21:07:45.053Z,56.10
2022-10-09T21:10:13.001Z,55.90
2022-10-09T21:12:41.605Z,55.70
2022-10-09T21:15:11.889Z,56.90
2022-10-09T21:17:39.873Z,56.40
2022-10-09T21:20:08.337Z,56.40
2022-10-09T21:22:36.266Z,55.90
2022-10-09T21:25:04.408Z,55.50
2022-10-09T21:27:32.352Z,55.00
2022-10-09T21:30:00.286Z,54.10
2022-10-09T21:32:29.579Z,55.20
2022-10-09T21:34:58.410Z,56.30
2022-10-09T21:37:26.365Z,57.40
2022-10-09T21:39:54.358Z,57.40
2022-10-09T21:42:22.319Z,55.70
2022-10-09T21:44:50.170Z,56.40
2022-10-09T21:47:19.593Z,56.40
2022-10-09T21:49:48.882Z,57.60
2022-10-09T21:52:16.835Z,56.20
2022-10-09T21:54:45.636Z,55.70
2022-10-09T21:57:13.524Z,55.60
2022-10-09T21:59:41.426Z,56.20
2022-10-09T22:02:09.328Z,55.40
2022-10-09T22:04:37.463Z,56.30
2022-10-09T22:07:06.743Z,56.20
2022-10-09T22:09:34.722Z,55.60
2022-10-09T22:12:02.639Z,55.90
2022-10-09T22:14:31.702Z,56.60
2022-10-09T22:16:59.643Z,56.20
2022-10-09T22:19:27.598Z,56.60
2022-10-09T22:21:55.536Z,56.80
2022-10-09T22:24:29.122Z,57.20
2022-10-09T22:26:57.487Z,57.40
2022-10-09T22:29:25.856Z,57.40
2022-10-09T22:31:54.127Z,57.40
2022-10-09T22:34:22.005Z,57.30
2022-10-09T22:36:49.901Z,57.40
2022-10-09T22:39:17.829Z,57.40
2022-10-09T22:41:47.121Z,58.10
2022-10-09T22:44:15.082Z,59.10
2022-10-09T22:46:45.055Z,60.60
2022-10-09T22:49:15.388Z,60.90
2022-10-09T22:51:43.672Z,60.70
2022-10-09T22:54:12.809Z,60.40
2022-10-09T22:56:42.263Z,59.60
2022-10-09T22:59:14.393Z,60.30
2022-10-09T23:01:45.368Z,59.60
2022-10-09T23:04:14.767Z,59.30
2022-10-09T23:06:44.038Z,59.50
2022-10-09T23:09:13.884Z,60.00
2022-10-09T23:11:42.085Z,59.70
2022-10-09T23:14:12.642Z,59.40
2022-10-09T23:16:40.984Z,59.90
2022-10-09T23:19:09.645Z,59.50
2022-10-09T23:21:39.144Z,59.40
2022-10-09T23:24:08.142Z,60.20
2022-10-09T23:26:37.594Z,59.90
2022-10-09T23:29:07.822Z,61.90
2022-10-09T23:31:37.662Z,60.80
2022-10-09T23:34:06.976Z,61.30
2022-10-09T23:36:35.172Z,60.80
2022-10-09T23:39:05.536Z,62.70
2022-10-09T23:41:33.756Z,61.40
2022-10-09T23:44:01.694Z,61.70
2022-10-09T23:46:32.867Z,61.20
2022-10-09T23:49:02.385Z,60.90
2022-10-09T23:51:31.133Z,60.50
2022-10-09T23:53:59.620Z,61.50
2022-10-09T23:56:28.904Z,60.90
2022-10-09T23:58:58.061Z,61.90
